createdAt,value
2018-06-20T00:01:47.180Z,12.62
2018-06-20T00:04:15.822Z,12.68
2018-06-20T00:06:44.326Z,12.67
2018-06-20T00:09:12.954Z,12.62
2018-06-20T00:11:41.542Z,12.60
2018-06-20T00:14:10.131Z,12.61
2018-06-20T00:16:38.718Z,12.61
2018-06-20T00:19:07.218Z,12.64
2018-06-20T00:21:35.787Z,12.62
2018-06-20T00:24:04.386Z,12.62
2018-06-20T00:26:33.026Z,12.59
2018-06-20T00:29:01.614Z,12.59
2018-06-20T00:31:30.238Z,12.61
2018-06-20T00:33:59.999Z,12.61
2018-06-20T00:36:28.591Z,12.58
2018-06-20T00:38:57.275Z,12.62
2018-06-20T00:41:25.870Z,12.61
2018-06-20T00:43:55.178Z,12.60
2018-06-20T00:46:23.822Z,12.60
2018-06-20T00:48:52.423Z,12.54
2018-06-20T00:51:21.425Z,12.54
2018-06-20T00:53:50.030Z,12.53
2018-06-20T00:56:28.554Z,12.53
2018-06-20T00:58:57.142Z,12.57
2018-06-20T01:01:25.783Z,12.59
2018-06-20T01:03:54.830Z,12.58
2018-06-20T01:06:23.769Z,12.57
2018-06-20T01:08:56.343Z,12.52
2018-06-20T01:11:25.361Z,12.51
2018-06-20T01:13:53.923Z,12.51
2018-06-20T01:16:22.501Z,12.53
2018-06-20T01:18:51.130Z,12.52
2018-06-20T01:21:19.678Z,12.50
2018-06-20T01:23:48.660Z,12.49
2018-06-20T01:26:17.894Z,12.52
2018-06-20T01:28:46.440Z,12.51
2018-06-20T01:31:15.129Z,12.51
2018-06-20T01:33:43.722Z,12.52
2018-06-20T01:36:12.220Z,12.52
2018-06-20T01:38:40.797Z,12.51
2018-06-20T01:41:09.590Z,12.52
2018-06-20T01:43:38.385Z,12.27
2018-06-20T01:46:06.952Z,12.53
2018-06-20T01:48:35.547Z,12.52
2018-06-20T01:51:04.142Z,12.51
2018-06-20T01:53:33.411Z,12.49
2018-06-20T01:56:02.081Z,12.54
2018-06-20T01:58:31.178Z,12.56
2018-06-20T02:00:59.861Z,12.59
2018-06-20T02:03:28.368Z,12.58
2018-06-20T02:05:57.026Z,12.60
2018-06-20T02:08:25.608Z,12.62
2018-06-20T02:10:54.215Z,12.63
2018-06-20T02:13:22.878Z,12.61
2018-06-20T02:15:51.378Z,12.63
2018-06-20T02:18:20.092Z,12.63
2018-06-20T02:20:48.547Z,12.60
2018-06-20T02:23:17.203Z,12.59
2018-06-20T02:25:45.705Z,12.57
2018-06-20T02:28:14.272Z,12.55
2018-06-20T02:30:42.863Z,12.53
2018-06-20T02:33:11.541Z,12.49
2018-06-20T02:35:40.124Z,12.50
2018-06-20T02:38:08.778Z,12.49
2018-06-20T02:40:38.022Z,12.50
2018-06-20T02:43:06.602Z,12.48
2018-06-20T02:45:35.317Z,12.50
2018-06-20T02:48:03.878Z,12.49
2018-06-20T02:50:32.447Z,12.49
2018-06-20T02:53:01.128Z,12.48
2018-06-20T02:55:29.662Z,12.45
2018-06-20T02:57:58.291Z,12.45
2018-06-20T03:00:26.787Z,12.47
2018-06-20T03:02:55.415Z,12.49
2018-06-20T03:05:24.040Z,12.48
2018-06-20T03:07:52.607Z,12.49
2018-06-20T03:10:21.229Z,12.50
2018-06-20T03:12:49.787Z,12.54
2018-06-20T03:15:18.397Z,12.61
2018-06-20T03:17:46.953Z,12.68
2018-06-20T03:20:15.741Z,12.74
2018-06-20T03:22:44.235Z,12.79
2018-06-20T03:25:12.901Z,12.79
2018-06-20T03:27:41.510Z,12.83
2018-06-20T03:30:10.073Z,12.90
2018-06-20T03:32:38.718Z,12.97
2018-06-20T03:35:07.226Z,13.02
2018-06-20T03:37:36.026Z,13.06
2018-06-20T03:40:04.627Z,13.12
2018-06-20T03:42:33.218Z,13.14
2018-06-20T03:45:01.792Z,13.16
2018-06-20T03:47:30.562Z,13.23
2018-06-20T03:49:59.248Z,13.30
2018-06-20T03:52:27.932Z,13.29
2018-06-20T03:54:56.515Z,13.30
2018-06-20T03:57:25.011Z,13.28
2018-06-20T03:59:53.581Z,13.35
2018-06-20T04:02:22.146Z,13.43
2018-06-20T04:04:50.761Z,13.46
2018-06-20T04:07:19.430Z,13.45
2018-06-20T04:09:48.992Z,13.40
2018-06-20T04:12:17.538Z,13.39
2018-06-20T04:14:46.123Z,13.37
2018-06-20T04:17:14.711Z,13.35
2018-06-20T04:19:43.207Z,13.40
2018-06-20T04:22:13.006Z,13.42
2018-06-20T04:24:41.617Z,13.47
2018-06-20T04:27:10.347Z,13.64
2018-06-20T04:29:38.955Z,13.75
2018-06-20T04:32:07.865Z,13.81
2018-06-20T04:34:36.452Z,13.86
2018-06-20T04:37:05.907Z,13.91
2018-06-20T04:39:34.487Z,13.96
2018-06-20T04:42:03.173Z,14.00
2018-06-20T04:44:31.817Z,13.99
2018-06-20T04:47:00.441Z,14.12
2018-06-20T04:49:28.994Z,14.31
2018-06-20T04:51:57.494Z,14.49
2018-06-20T04:54:26.195Z,14.59
2018-06-20T04:56:54.985Z,14.63
2018-06-20T04:59:23.669Z,14.64
2018-06-20T05:01:52.291Z,14.58
2018-06-20T05:04:21.467Z,14.48
2018-06-20T05:06:50.077Z,14.52
2018-06-20T05:09:19.332Z,14.57
2018-06-20T05:11:49.994Z,14.59
2018-06-20T05:14:19.358Z,14.65
2018-06-20T05:16:48.252Z,14.70
2018-06-20T05:19:17.182Z,14.80
2018-06-20T05:21:46.344Z,14.99
2018-06-20T05:24:15.024Z,15.16
2018-06-20T05:26:43.618Z,15.34
2018-06-20T05:29:12.234Z,15.43
2018-06-20T05:31:40.827Z,15.44
2018-06-20T05:34:09.470Z,15.50
2018-06-20T05:36:38.085Z,15.56
2018-06-20T05:39:09.493Z,15.71
2018-06-20T05:41:38.233Z,15.75
2018-06-20T05:44:08.134Z,15.76
2018-06-20T05:46:36.978Z,15.78
2018-06-20T05:49:05.847Z,15.84
2018-06-20T05:51:34.367Z,15.76
2018-06-20T05:54:03.035Z,15.73
2018-06-20T05:56:31.681Z,15.57
2018-06-20T05:59:00.186Z,15.52
2018-06-20T06:01:28.838Z,15.41
2018-06-20T06:03:57.410Z,15.40
2018-06-20T06:06:26.085Z,15.34
2018-06-20T06:08:54.632Z,15.36
2018-06-20T06:11:23.138Z,15.38
2018-06-20T06:13:51.718Z,15.34
2018-06-20T06:16:20.952Z,15.32
2018-06-20T06:18:49.445Z,15.31
2018-06-20T06:21:18.150Z,15.31
2018-06-20T06:23:46.769Z,15.28
2018-06-20T06:26:15.436Z,15.21
2018-06-20T06:28:44.070Z,15.23
2018-06-20T06:31:12.698Z,15.30
2018-06-20T06:33:41.383Z,15.35
2018-06-20T06:36:10.090Z,15.41
2018-06-20T06:38:38.755Z,15.48
2018-06-20T06:41:07.439Z,15.53
2018-06-20T06:43:36.022Z,15.55
2018-06-20T06:46:04.651Z,15.63
2018-06-20T06:48:33.300Z,15.69
2018-06-20T06:51:01.976Z,15.79
2018-06-20T06:53:30.558Z,15.81
2018-06-20T06:55:59.251Z,15.74
2018-06-20T06:58:27.730Z,15.61
2018-06-20T07:00:56.382Z,15.50
2018-06-20T07:03:24.895Z,15.43
2018-06-20T07:05:53.475Z,15.54
2018-06-20T07:08:22.055Z,15.51
2018-06-20T07:10:50.638Z,15.41
2018-06-20T07:13:19.429Z,15.34
2018-06-20T07:15:48.114Z,15.30
2018-06-20T07:18:16.695Z,15.30
2018-06-20T07:20:45.214Z,15.28
2018-06-20T07:23:13.745Z,15.18
2018-06-20T07:25:42.280Z,15.10
2018-06-20T07:28:11.414Z,14.97
2018-06-20T07:30:40.125Z,14.85
2018-06-20T07:33:08.621Z,14.42
2018-06-20T07:35:37.307Z,14.61
2018-06-20T07:38:05.778Z,14.51
2018-06-20T07:40:34.304Z,14.36
2018-06-20T07:43:02.931Z,14.17
2018-06-20T07:45:31.986Z,13.97
2018-06-20T07:48:02.045Z,13.88
2018-06-20T07:50:30.615Z,13.82
2018-06-20T07:52:59.130Z,13.74
2018-06-20T07:55:29.138Z,13.64
2018-06-20T07:57:57.811Z,13.57
2018-06-20T08:00:31.662Z,13.51
2018-06-20T08:03:17.867Z,13.49
2018-06-20T08:05:51.723Z,13.51
2018-06-20T08:09:29.568Z,13.47
2018-06-20T08:12:04.071Z,13.39
2018-06-20T08:14:38.686Z,13.30
2018-06-20T08:17:12.482Z,13.25
2018-06-20T08:19:46.999Z,13.23
2018-06-20T08:22:19.167Z,13.25
2018-06-20T08:25:01.492Z,13.25
2018-06-20T08:27:31.439Z,13.23
2018-06-20T08:30:01.562Z,13.30
2018-06-20T08:32:30.513Z,13.33
2018-06-20T08:34:59.358Z,13.31
2018-06-20T08:37:28.068Z,13.33
2018-06-20T08:39:58.946Z,13.28
2018-06-20T08:42:28.169Z,13.25
2018-06-20T08:44:57.356Z,13.16
2018-06-20T08:47:26.498Z,13.12
2018-06-20T08:49:56.114Z,13.11
2018-06-20T08:52:25.404Z,13.18
2018-06-20T08:57:34.579Z,13.26
2018-06-20T09:00:03.162Z,13.26
2018-06-20T09:02:32.243Z,13.20
2018-06-20T09:05:06.016Z,13.22
2018-06-20T09:07:39.799Z,13.23
2018-06-20T09:10:14.478Z,13.20
2018-06-20T09:12:48.146Z,13.18
2018-06-20T09:15:21.994Z,13.23
2018-06-20T09:17:55.737Z,13.27
2018-06-20T09:20:24.282Z,13.30
2018-06-20T09:22:52.854Z,13.34
2018-06-20T09:25:21.462Z,13.42
2018-06-20T09:27:50.071Z,13.52
2018-06-20T09:30:18.631Z,13.47
2018-06-20T09:32:47.200Z,13.46
2018-06-20T09:35:15.854Z,13.45
2018-06-20T09:37:45.194Z,13.45
2018-06-20T09:40:13.845Z,13.43
2018-06-20T09:42:43.282Z,13.36
2018-06-20T09:45:11.889Z,13.30
2018-06-20T09:47:40.470Z,13.34
2018-06-20T09:50:14.198Z,13.29
2018-06-20T09:52:42.796Z,13.21
2018-06-20T09:55:11.426Z,13.15
2018-06-20T09:57:40.883Z,13.11
2018-06-20T10:00:14.796Z,13.07
2018-06-20T10:02:48.495Z,13.07
2018-06-20T10:05:22.211Z,13.07
2018-06-20T10:07:56.004Z,13.06
2018-06-20T10:10:29.829Z,13.11
2018-06-20T10:13:03.611Z,13.21
2018-06-20T10:15:32.297Z,13.16
2018-06-20T10:18:00.790Z,13.16
2018-06-20T10:20:30.370Z,13.12
2018-06-20T10:23:00.362Z,13.13
2018-06-20T10:25:29.649Z,13.14
2018-06-20T10:27:59.204Z,13.16
2018-06-20T10:30:27.828Z,13.14
2018-06-20T10:32:56.474Z,13.13
2018-06-20T10:35:25.002Z,12.94
2018-06-20T10:37:53.699Z,12.96
2018-06-20T10:40:22.221Z,13.04
2018-06-20T10:42:50.839Z,13.09
2018-06-20T10:45:24.664Z,12.97
2018-06-20T10:47:53.220Z,12.95
2018-06-20T10:50:21.798Z,13.03
2018-06-20T10:52:50.379Z,13.01
2018-06-20T10:55:19.249Z,12.89
2018-06-20T10:57:53.006Z,12.92
2018-06-20T11:00:26.756Z,12.96
2018-06-20T11:03:01.327Z,12.89
2018-06-20T11:05:36.210Z,12.75
2018-06-20T11:08:11.255Z,12.71
2018-06-20T11:10:45.572Z,12.73
2018-06-20T11:13:15.858Z,12.65
2018-06-20T11:15:45.439Z,12.71
2018-06-20T11:18:15.509Z,12.64
2018-06-20T11:20:50.337Z,12.65
2018-06-20T11:23:19.455Z,12.68
2018-06-20T11:25:48.035Z,12.76
2018-06-20T11:28:17.576Z,12.79
2018-06-20T11:30:46.971Z,12.84
2018-06-20T11:33:16.068Z,12.86
2018-06-20T11:35:44.614Z,12.87
2018-06-20T11:38:13.284Z,12.84
2018-06-20T11:40:41.848Z,12.85
2018-06-20T11:43:10.362Z,12.93
2018-06-20T11:45:44.282Z,12.91
2018-06-20T11:48:13.763Z,12.82
2018-06-20T11:50:42.364Z,12.85
2018-06-20T11:53:11.850Z,12.93
2018-06-20T11:55:41.916Z,13.03
2018-06-20T11:58:15.853Z,13.11
2018-06-20T12:00:49.679Z,13.18
2018-06-20T12:03:23.462Z,13.23
2018-06-20T12:05:57.274Z,13.30
2018-06-20T12:08:30.955Z,13.38
2018-06-20T12:11:04.730Z,13.49
2018-06-20T12:13:38.495Z,13.56
2018-06-20T12:16:12.350Z,13.67
2018-06-20T12:18:46.138Z,13.78
2018-06-20T12:21:20.326Z,13.91
2018-06-20T12:23:54.262Z,14.02
2018-06-20T12:26:28.243Z,14.15
2018-06-20T12:29:02.051Z,14.31
2018-06-20T12:31:35.882Z,14.46
2018-06-20T12:34:10.888Z,14.67
2018-06-20T12:36:44.662Z,14.96
2018-06-20T12:39:12.428Z,15.27
2018-06-20T12:41:46.367Z,15.49
2018-06-20T12:45:20.991Z,15.73
2018-06-20T12:47:52.855Z,15.91
2018-06-20T12:50:26.561Z,16.04
2018-06-20T12:52:55.550Z,16.16
2018-06-20T12:55:25.098Z,16.28
2018-06-20T12:57:54.355Z,16.39
2018-06-20T13:00:22.955Z,16.50
2018-06-20T13:02:52.240Z,16.61
2018-06-20T13:05:20.895Z,16.74
2018-06-20T13:07:49.510Z,16.82
2018-06-20T13:10:18.294Z,16.87
2018-06-20T13:12:46.831Z,16.91
2018-06-20T13:15:15.970Z,16.95
2018-06-20T13:17:44.527Z,17.01
2018-06-20T13:20:14.043Z,17.04
2018-06-20T13:22:42.644Z,17.15
2018-06-20T13:25:11.327Z,17.28
2018-06-20T13:27:45.135Z,17.32
2018-06-20T13:30:13.970Z,17.33
2018-06-20T13:32:48.339Z,17.33
2018-06-20T13:35:22.573Z,17.36
2018-06-20T13:37:56.360Z,17.36
2018-06-20T13:40:30.030Z,17.39
2018-06-20T13:43:04.301Z,17.39
2018-06-20T13:45:39.074Z,17.38
2018-06-20T13:48:15.955Z,17.35
2018-06-20T13:50:45.269Z,17.31
2018-06-20T13:53:13.973Z,17.24
2018-06-20T13:55:42.594Z,17.19
2018-06-20T13:58:15.175Z,17.08
2018-06-20T14:00:44.134Z,17.09
2018-06-20T14:03:12.808Z,17.07
2018-06-20T14:05:41.680Z,17.04
2018-06-20T14:08:10.279Z,17.07
2018-06-20T14:10:39.002Z,17.13
2018-06-20T14:13:07.546Z,17.13
2018-06-20T14:15:36.233Z,17.13
2018-06-20T14:18:04.868Z,17.14
2018-06-20T14:20:39.440Z,17.14
2018-06-20T14:23:08.025Z,17.19
2018-06-20T14:25:36.647Z,17.21
2018-06-20T14:28:05.272Z,17.20
2018-06-20T14:30:38.996Z,17.18
2018-06-20T14:33:12.797Z,17.13
2018-06-20T14:35:46.605Z,17.08
2018-06-20T14:38:20.358Z,17.08
2018-06-20T14:40:54.114Z,17.08
2018-06-20T14:43:27.916Z,17.03
2018-06-20T14:46:01.782Z,17.02
2018-06-20T14:48:30.410Z,17.00
2018-06-20T14:50:59.090Z,16.90
2018-06-20T14:53:27.807Z,16.89
2018-06-20T14:55:57.034Z,16.84
2018-06-20T14:58:26.210Z,16.85
2018-06-20T15:00:55.517Z,16.77
2018-06-20T15:03:24.070Z,16.67
2018-06-20T15:05:52.658Z,16.62
2018-06-20T15:08:21.992Z,16.64
2018-06-20T15:10:50.534Z,16.65
2018-06-20T15:13:19.157Z,16.62
2018-06-20T15:15:47.707Z,16.56
2018-06-20T15:18:16.628Z,16.53
2018-06-20T15:20:45.573Z,16.50
2018-06-20T15:23:14.354Z,16.51
2018-06-20T15:25:47.090Z,16.48
2018-06-20T15:28:21.548Z,16.48
2018-06-20T15:30:55.363Z,16.42
2018-06-20T15:33:29.163Z,16.40
2018-06-20T15:36:02.974Z,16.43
2018-06-20T15:38:31.626Z,16.41
2018-06-20T15:41:00.339Z,16.40
2018-06-20T15:43:28.895Z,16.35
2018-06-20T15:45:57.408Z,16.37
2018-06-20T15:48:25.891Z,16.36
2018-06-20T15:50:54.577Z,16.36
2018-06-20T15:53:23.224Z,16.37
2018-06-20T15:55:51.747Z,16.37
2018-06-20T15:58:20.424Z,16.38
2018-06-20T16:00:49.250Z,16.35
2018-06-20T16:03:17.830Z,16.34
2018-06-20T16:05:46.481Z,16.32
2018-06-20T16:08:15.514Z,16.36
2018-06-20T16:10:44.158Z,16.37
2018-06-20T16:13:12.787Z,16.40
2018-06-20T16:15:42.095Z,16.41
2018-06-20T16:18:10.623Z,16.42
2018-06-20T16:20:44.302Z,16.43
2018-06-20T16:23:18.133Z,16.47
2018-06-20T16:25:51.793Z,16.50
2018-06-20T16:28:25.538Z,16.56
2018-06-20T16:30:54.138Z,16.61
2018-06-20T16:33:22.704Z,16.66
2018-06-20T16:35:51.195Z,16.68
2018-06-20T16:38:19.765Z,16.69
2018-06-20T16:40:48.452Z,16.71
2018-06-20T16:43:17.006Z,16.71
2018-06-20T16:45:45.743Z,16.75
2018-06-20T16:48:14.404Z,16.77
2018-06-20T16:50:42.987Z,16.74
2018-06-20T16:53:11.598Z,16.74
2018-06-20T16:55:40.298Z,16.73
2018-06-20T16:58:08.940Z,16.72
2018-06-20T17:00:37.627Z,16.68
2018-06-20T17:03:06.330Z,16.67
2018-06-20T17:05:34.830Z,16.75
2018-06-20T17:08:03.479Z,16.78
2018-06-20T17:10:31.994Z,16.73
2018-06-20T17:13:05.868Z,16.75
2018-06-20T17:15:39.630Z,16.80
2018-06-20T17:18:13.686Z,16.82
2018-06-20T17:20:47.414Z,16.78
2018-06-20T17:23:21.258Z,16.76
2018-06-20T17:25:49.786Z,16.72
2018-06-20T17:28:18.506Z,16.66
2018-06-20T17:30:47.142Z,16.64
2018-06-20T17:33:15.831Z,16.63
2018-06-20T17:35:44.338Z,16.63
2018-06-20T17:38:12.999Z,16.65
2018-06-20T17:40:41.631Z,16.69
2018-06-20T17:43:10.162Z,16.68
2018-06-20T17:45:38.789Z,16.67
2018-06-20T17:48:07.373Z,16.67
2018-06-20T17:50:35.893Z,16.64
2018-06-20T17:53:04.595Z,16.63
2018-06-20T17:55:33.185Z,16.62
2018-06-20T17:58:01.702Z,16.59
2018-06-20T18:00:31.286Z,16.57
2018-06-20T18:02:59.816Z,16.58
2018-06-20T18:05:33.551Z,16.55
2018-06-20T18:08:07.206Z,16.53
2018-06-20T18:10:40.930Z,16.53
2018-06-20T18:13:10.767Z,16.54
2018-06-20T18:15:44.790Z,16.50
2018-06-20T18:18:13.516Z,16.48
2018-06-20T18:20:42.149Z,16.46
2018-06-20T18:23:10.678Z,16.45
2018-06-20T18:25:39.294Z,16.41
2018-06-20T18:28:07.998Z,16.40
2018-06-20T18:30:36.683Z,16.40
2018-06-20T18:33:05.350Z,16.38
2018-06-20T18:35:33.916Z,16.40
2018-06-20T18:38:02.537Z,16.40
2018-06-20T18:40:31.074Z,16.39
2018-06-20T18:42:59.762Z,16.43
2018-06-20T18:45:28.363Z,16.43
2018-06-20T18:48:02.199Z,16.42
2018-06-20T18:50:30.820Z,16.42
2018-06-20T18:52:59.458Z,16.43
2018-06-20T18:55:28.904Z,16.43
2018-06-20T18:58:02.768Z,16.39
2018-06-20T19:00:36.568Z,16.37
2018-06-20T19:03:11.565Z,16.38
2018-06-20T19:05:45.411Z,16.37
2018-06-20T19:08:19.178Z,16.37
2018-06-20T19:10:47.724Z,16.37
2018-06-20T19:13:16.420Z,16.37
2018-06-20T19:15:44.942Z,16.38
2018-06-20T19:18:16.558Z,16.36
2018-06-20T19:20:45.146Z,16.36
2018-06-20T19:23:27.262Z,16.35
2018-06-20T19:25:59.161Z,16.36
2018-06-20T19:28:27.850Z,16.32
2018-06-20T19:30:56.366Z,16.31
2018-06-20T19:33:24.883Z,16.30
2018-06-20T19:35:54.314Z,16.29
2018-06-20T19:38:23.000Z,16.29
2018-06-20T19:40:51.685Z,16.29
2018-06-20T19:43:20.264Z,16.28
2018-06-20T19:45:48.762Z,16.30
2018-06-20T19:48:17.379Z,16.28
2018-06-20T19:50:45.922Z,16.26
2018-06-20T19:53:14.601Z,16.25
2018-06-20T19:55:43.951Z,16.25
2018-06-20T19:58:12.584Z,16.24
2018-06-20T20:00:41.373Z,16.23
2018-06-20T20:03:11.539Z,16.25
2018-06-20T20:05:40.051Z,16.26
2018-06-20T20:08:10.705Z,16.26
2018-06-20T20:10:40.318Z,16.25
2018-06-20T20:13:08.835Z,16.23
2018-06-20T20:15:38.141Z,16.22
2018-06-20T20:18:06.713Z,16.19
2018-06-20T20:20:35.557Z,16.20
2018-06-20T20:23:04.059Z,16.22
2018-06-20T20:25:32.613Z,16.21
2018-06-20T20:28:01.210Z,16.21
2018-06-20T20:30:29.897Z,16.20
2018-06-20T20:32:58.414Z,16.21
2018-06-20T20:35:27.062Z,16.22
2018-06-20T20:37:55.598Z,16.21
2018-06-20T20:40:24.162Z,16.21
2018-06-20T20:42:52.811Z,16.23
2018-06-20T20:45:21.910Z,16.22
2018-06-20T20:47:50.507Z,16.22
2018-06-20T20:50:19.115Z,16.20
2018-06-20T20:52:48.475Z,16.20
2018-06-20T20:55:17.018Z,16.21
2018-06-20T20:57:45.666Z,16.21
2018-06-20T21:00:14.223Z,16.22
2018-06-20T21:02:42.805Z,16.21
2018-06-20T21:05:11.446Z,16.23
2018-06-20T21:07:40.018Z,16.22
2018-06-20T21:10:08.764Z,16.24
2018-06-20T21:12:37.443Z,16.22
2018-06-20T21:15:06.334Z,16.24
2018-06-20T21:17:34.858Z,16.23
2018-06-20T21:20:04.421Z,16.23
2018-06-20T21:22:33.099Z,16.24
2018-06-20T21:25:01.792Z,16.22
2018-06-20T21:27:30.375Z,16.23
2018-06-20T21:29:59.000Z,16.20
2018-06-20T21:32:27.578Z,16.19
2018-06-20T21:34:56.180Z,16.21
2018-06-20T21:37:24.822Z,16.21
2018-06-20T21:39:53.419Z,16.22
2018-06-20T21:42:21.990Z,16.21
2018-06-20T21:44:50.614Z,16.18
2018-06-20T21:47:19.242Z,16.18
2018-06-20T21:49:47.866Z,16.16
2018-06-20T21:52:16.478Z,16.16
2018-06-20T21:54:45.045Z,16.15
2018-06-20T21:57:13.809Z,16.14
2018-06-20T21:59:42.464Z,16.13
2018-06-20T22:02:11.019Z,16.14
2018-06-20T22:04:39.732Z,16.12
2018-06-20T22:07:08.354Z,16.11
2018-06-20T22:09:36.899Z,16.14
2018-06-20T22:12:05.586Z,16.14
2018-06-20T22:14:34.273Z,16.13
2018-06-20T22:17:02.853Z,16.16
2018-06-20T22:19:31.434Z,16.14
2018-06-20T22:22:00.037Z,16.14
2018-06-20T22:24:28.720Z,16.13
2018-06-20T22:26:57.315Z,16.12
2018-06-20T22:29:25.970Z,16.12
2018-06-20T22:31:54.644Z,16.08
2018-06-20T22:34:23.238Z,16.11
2018-06-20T22:36:52.624Z,16.08
2018-06-20T22:39:21.135Z,16.08
2018-06-20T22:41:49.674Z,16.07
2018-06-20T22:44:18.356Z,16.06
2018-06-20T22:46:47.014Z,16.05
2018-06-20T22:49:15.643Z,16.03
2018-06-20T22:51:44.241Z,15.98
2018-06-20T22:54:12.823Z,15.93
2018-06-20T22:56:41.405Z,15.93
2018-06-20T22:59:09.902Z,15.89
2018-06-20T23:01:38.495Z,15.85
2018-06-20T23:04:07.094Z,15.81
2018-06-20T23:06:35.736Z,15.78
2018-06-20T23:09:06.280Z,15.77
2018-06-20T23:11:39.907Z,15.75
2018-06-20T23:14:08.552Z,15.71
2018-06-20T23:16:37.189Z,15.62
2018-06-20T23:19:05.770Z,15.50
2018-06-20T23:21:34.423Z,15.39
2018-06-20T23:24:03.138Z,15.31
2018-06-20T23:26:31.814Z,15.27
2018-06-20T23:29:00.714Z,15.19
2018-06-20T23:31:29.406Z,15.15
2018-06-20T23:33:58.039Z,15.13
2018-06-20T23:36:26.719Z,15.16
2018-06-20T23:38:55.303Z,15.11
2018-06-20T23:41:24.258Z,15.08
2018-06-20T23:43:52.818Z,15.03
2018-06-20T23:46:21.382Z,14.99
2018-06-20T23:48:50.050Z,14.92
2018-06-20T23:51:19.431Z,14.86
2018-06-20T23:53:48.032Z,14.81
2018-06-20T23:56:16.609Z,14.73
2018-06-20T23:58:45.227Z,14.69
